Time;durP1;ratioP1;P1;durP2;ratioP2;P2;SDS_P1;SDS_P2;PMS_P1;PMS_P2;Temp;Humidity;BMP_temperature;BMP_pressure;BME280_temperature;BME280_humidity;BME280_pressure;Samples;Min_cycle;Max_cycle;Signal;HPM_P1;HPM_P2
2021/01/20 00:02:10;;;;;;;101.63;52.35;;;-0.50;93.70;;;;;;5029073;28;20545;-71
2021/01/20 00:04:35;;;;;;;103.60;52.35;;;-0.40;93.60;;;;;;5026330;28;20033;-74
2021/01/20 00:07:01;;;;;;;95.20;51.45;;;-0.40;93.50;;;;;;5023788;28;20060;-72
2021/01/20 00:09:27;;;;;;;100.63;51.92;;;-0.40;93.40;;;;;;5026477;28;20059;-74
2021/01/20 00:11:53;;;;;;;95.97;49.45;;;-0.40;93.50;;;;;;5027109;28;20068;-75
2021/01/20 00:14:18;;;;;;;96.85;48.13;;;-0.30;93.40;;;;;;5025493;28;20026;-74
2021/01/20 00:16:45;;;;;;;95.47;48.72;;;-0.30;93.30;;;;;;5026875;28;20034;-74
2021/01/20 00:19:11;;;;;;;91.80;47.67;;;-0.30;93.20;;;;;;5025697;28;20395;-74
2021/01/20 00:21:37;;;;;;;96.93;44.28;;;-0.30;93.20;;;;;;5025613;28;20126;-73
2021/01/20 00:24:04;;;;;;;89.65;46.08;;;-0.30;93.20;;;;;;5030899;28;20021;-72
2021/01/20 00:26:30;;;;;;;87.75;44.72;;;-0.30;93.00;;;;;;5030953;28;20036;-75
2021/01/20 00:28:55;;;;;;;87.22;43.92;;;-0.30;93.00;;;;;;5028676;28;20033;-72
2021/01/20 00:31:21;;;;;;;85.28;42.33;;;-0.30;93.00;;;;;;5028992;28;20034;-73
2021/01/20 00:33:47;;;;;;;83.47;44.53;;;-0.20;93.00;;;;;;5029847;28;20596;-74
2021/01/20 00:36:13;;;;;;;74.97;41.25;;;-0.30;93.00;;;;;;5028674;28;20446;-73
2021/01/20 00:38:39;;;;;;;90.88;45.20;;;-0.20;92.90;;;;;;5029880;28;20029;-73
2021/01/20 00:41:04;;;;;;;82.32;42.85;;;-0.20;92.90;;;;;;5027611;28;20052;-74
2021/01/20 00:43:30;;;;;;;82.63;41.65;;;-0.30;92.90;;;;;;5029862;28;20032;-73
2021/01/20 00:45:57;;;;;;;80.82;42.55;;;-0.30;93.00;;;;;;5029444;28;20486;-72
2021/01/20 00:48:23;;;;;;;74.72;40.55;;;-0.30;92.90;;;;;;5027571;28;20267;-72
2021/01/20 00:50:53;;;;;;;83.07;42.45;;;-0.30;92.90;;;;;;5028616;28;20053;-74
2021/01/20 00:53:19;;;;;;;87.55;42.10;;;-0.30;92.70;;;;;;5029207;28;20498;-72
2021/01/20 00:55:44;;;;;;;83.50;39.55;;;-0.30;92.90;;;;;;5028110;28;20040;-72
2021/01/20 00:58:10;;;;;;;84.88;40.38;;;-0.40;92.90;;;;;;5026520;28;20033;-74
2021/01/20 01:00:36;;;;;;;79.13;41.70;;;-0.30;92.80;;;;;;5028328;28;20045;-72
2021/01/20 01:03:01;;;;;;;64.65;35.42;;;-0.40;92.90;;;;;;5027525;28;20470;-74
2021/01/20 01:05:27;;;;;;;77.30;38.33;;;-0.30;92.90;;;;;;5026529;28;20491;-73
2021/01/20 01:07:53;;;;;;;80.20;41.63;;;-0.40;92.90;;;;;;5030223;28;20033;-74
2021/01/20 01:10:19;;;;;;;77.82;39.10;;;-0.40;92.90;;;;;;5029619;28;20033;-72
2021/01/20 01:12:44;;;;;;;79.80;38.08;;;-0.40;92.80;;;;;;5027225;28;20029;-73
2021/01/20 01:15:10;;;;;;;77.50;39.42;;;-0.30;92.70;;;;;;5028569;28;20429;-74
2021/01/20 01:17:36;;;;;;;70.95;38.95;;;-0.40;92.60;;;;;;5028856;28;20505;-73
2021/01/20 01:20:02;;;;;;;74.03;39.30;;;-0.40;92.70;;;;;;5029955;28;20021;-70
2021/01/20 01:22:28;;;;;;;80.47;38.22;;;-0.40;92.70;;;;;;5031718;28;20033;-71
2021/01/20 01:24:54;;;;;;;77.70;37.50;;;-0.40;92.60;;;;;;5029626;28;20548;-70
2021/01/20 01:27:19;;;;;;;74.60;36.90;;;-0.40;92.60;;;;;;5027568;28;20551;-72
2021/01/20 01:29:45;;;;;;;69.53;35.55;;;-0.40;92.60;;;;;;5033831;28;20029;-71
2021/01/20 01:32:11;;;;;;;71.78;36.58;;;-0.40;92.60;;;;;;5044589;28;20132;-73
2021/01/20 01:34:37;;;;;;;73.13;38.65;;;-0.40;92.40;;;;;;5028235;28;20445;-75
2021/01/20 01:37:03;;;;;;;72.40;35.35;;;-0.40;92.60;;;;;;5028533;28;20099;-71
2021/01/20 01:39:28;;;;;;;79.18;37.53;;;-0.40;92.50;;;;;;5027261;28;20045;-73
2021/01/20 01:41:54;;;;;;;71.05;37.08;;;-0.40;92.70;;;;;;5025693;28;20494;-71
2021/01/20 01:44:20;;;;;;;79.00;37.30;;;-0.40;92.30;;;;;;5030131;28;20021;-73
2021/01/20 01:46:46;;;;;;;72.85;36.50;;;-0.40;92.30;;;;;;5028488;28;20025;-74
2021/01/20 01:49:12;;;;;;;81.63;38.72;;;-0.40;92.20;;;;;;5026226;28;20037;-72
2021/01/20 01:51:39;;;;;;;71.18;36.05;;;-0.40;92.10;;;;;;5027631;28;20106;-70
2021/01/20 01:54:05;;;;;;;74.03;37.72;;;-0.40;92.20;;;;;;5029100;28;20151;-70
2021/01/20 01:56:32;;;;;;;69.38;34.85;;;-0.40;92.10;;;;;;5028953;28;20029;-70
2021/01/20 01:58:58;;;;;;;70.30;36.65;;;-0.30;92.10;;;;;;5030956;28;20021;-73
2021/01/20 02:01:24;;;;;;;75.38;36.83;;;-0.40;92.00;;;;;;5027680;28;20055;-70
2021/01/20 02:03:50;;;;;;;70.80;36.20;;;-0.40;92.00;;;;;;5028639;28;20033;-72
2021/01/20 02:06:16;;;;;;;68.97;35.97;;;-0.40;91.90;;;;;;5028122;28;20018;-74
2021/01/20 02:08:44;;;;;;;71.75;36.97;;;-0.40;92.00;;;;;;5037922;28;20113;-71
2021/01/20 02:11:47;;;;;;;73.82;37.03;;;-0.40;92.00;;;;;;5026303;28;20123;-72
2021/01/20 02:14:24;;;;;;;68.82;35.10;;;-0.40;92.00;;;;;;5028088;28;20032;-74
2021/01/20 02:17:04;;;;;;;69.18;34.60;;;-0.40;92.00;;;;;;5036339;28;20070;-74
2021/01/20 02:19:49;;;;;;;67.57;33.33;;;-0.40;92.10;;;;;;5034818;28;20141;-74
2021/01/20 02:22:44;;;;;;;69.13;37.25;;;-0.40;92.00;;;;;;5031495;28;20030;-73
2021/01/20 02:25:31;;;;;;;72.40;37.10;;;-0.40;92.00;;;;;;5025936;28;20021;-70
2021/01/20 02:28:19;;;;;;;71.45;35.08;;;-0.50;92.00;;;;;;5025308;28;20036;-71
2021/01/20 02:30:46;;;;;;;69.00;33.33;;;-0.40;92.00;;;;;;5029113;28;20449;-73
2021/01/20 02:33:20;;;;;;;70.63;37.65;;;-0.40;91.90;;;;;;5032918;28;20060;-75
2021/01/20 02:35:50;;;;;;;69.53;34.85;;;-0.40;91.90;;;;;;5031581;28;20033;-74
2021/01/20 02:38:16;;;;;;;69.75;35.58;;;-0.40;91.90;;;;;;5025271;28;20025;-73
2021/01/20 02:40:42;;;;;;;77.18;38.33;;;-0.40;91.90;;;;;;5027746;28;20038;-74
2021/01/20 02:43:07;;;;;;;63.72;33.47;;;-0.40;91.80;;;;;;5022909;28;20037;-72
2021/01/20 02:45:33;;;;;;;72.40;36.33;;;-0.40;91.90;;;;;;5025720;28;20029;-73
2021/01/20 02:47:59;;;;;;;75.15;35.25;;;-0.40;91.70;;;;;;5025736;28;20112;-74
2021/01/20 02:50:24;;;;;;;73.20;33.03;;;-0.40;91.80;;;;;;5027648;28;20044;-74
2021/01/20 02:53:05;;;;;;;69.63;34.80;;;-0.40;91.70;;;;;;5029771;28;20498;-73
2021/01/20 02:55:33;;;;;;;67.50;34.35;;;-0.40;91.80;;;;;;5029640;28;20474;-72
2021/01/20 02:58:14;;;;;;;76.80;35.08;;;-0.40;91.80;;;;;;5027148;28;20037;-74
2021/01/20 03:00:40;;;;;;;71.93;35.47;;;-0.40;91.80;;;;;;5025453;28;20044;-74
2021/01/20 03:03:09;;;;;;;67.10;33.40;;;-0.40;91.70;;;;;;5029176;28;20185;-72
2021/01/20 03:05:36;;;;;;;71.28;34.85;;;-0.40;91.70;;;;;;5028570;28;20037;-72
2021/01/20 03:08:03;;;;;;;70.55;34.65;;;-0.40;91.80;;;;;;5032722;28;20036;-72
2021/01/20 03:10:28;;;;;;;69.97;35.53;;;-0.40;91.80;;;;;;5038319;28;20017;-72
2021/01/20 03:12:55;;;;;;;69.43;35.22;;;-0.50;91.80;;;;;;5027044;28;20037;-74
2021/01/20 03:15:41;;;;;;;70.00;34.42;;;-0.50;91.80;;;;;;5026262;28;20109;-72
2021/01/20 03:18:08;;;;;;;68.10;34.15;;;-0.40;91.70;;;;;;5026647;28;20049;-71
2021/01/20 03:20:36;;;;;;;63.20;34.20;;;-0.40;91.60;;;;;;5026912;28;20452;-72
2021/01/20 03:23:02;;;;;;;68.55;35.92;;;-0.40;91.60;;;;;;5026504;28;20022;-72
2021/01/20 03:25:28;;;;;;;69.80;34.65;;;-0.40;91.60;;;;;;5028089;28;20032;-73
2021/01/20 03:27:54;;;;;;;64.15;32.67;;;-0.50;91.70;;;;;;5027842;28;20143;-73
2021/01/20 03:30:20;;;;;;;76.65;35.30;;;-0.50;91.80;;;;;;5026515;28;20410;-72
2021/01/20 03:32:46;;;;;;;70.35;35.28;;;-0.50;91.70;;;;;;5027848;28;20028;-74
2021/01/20 03:35:12;;;;;;;62.83;33.28;;;-0.50;91.80;;;;;;5031379;28;20018;-71
2021/01/20 03:37:38;;;;;;;68.22;36.08;;;-0.50;91.70;;;;;;5027963;28;20476;-74
2021/01/20 03:40:06;;;;;;;70.60;35.10;;;-0.50;91.80;;;;;;5027963;28;20041;-72
2021/01/20 03:42:32;;;;;;;64.15;34.47;;;-0.50;91.80;;;;;;5026330;28;20025;-72
2021/01/20 03:44:57;;;;;;;55.22;31.35;;;-0.50;91.70;;;;;;5025624;28;20036;-70
2021/01/20 03:47:23;;;;;;;64.25;33.15;;;-0.50;91.70;;;;;;5033866;28;20513;-70
2021/01/20 03:49:48;;;;;;;63.65;33.08;;;-0.50;91.60;;;;;;5026295;28;20116;-72
2021/01/20 03:52:14;;;;;;;61.00;33.42;;;-0.50;91.60;;;;;;5030658;28;20083;-72
2021/01/20 03:54:40;;;;;;;68.97;34.75;;;-0.50;91.60;;;;;;5030246;28;20040;-72
2021/01/20 03:57:06;;;;;;;67.07;34.53;;;-0.40;91.50;;;;;;5028953;28;20029;-70
2021/01/20 03:59:31;;;;;;;64.78;32.35;;;-0.40;91.40;;;;;;5029836;28;20047;-75
2021/01/20 04:01:58;;;;;;;62.40;33.55;;;-0.40;91.40;;;;;;5030353;28;20083;-71
2021/01/20 04:04:25;;;;;;;59.55;31.67;;;-0.40;91.40;;;;;;5031643;28;20569;-72
2021/01/20 04:06:50;;;;;;;61.47;32.38;;;-0.40;91.50;;;;;;5031487;28;20025;-72
2021/01/20 04:09:16;;;;;;;68.32;33.95;;;-0.40;91.50;;;;;;5030618;28;20026;-71
2021/01/20 04:11:42;;;;;;;63.38;31.98;;;-0.30;91.30;;;;;;5031979;28;20029;-71
2021/01/20 04:14:08;;;;;;;59.85;31.70;;;-0.40;91.40;;;;;;5036950;28;20033;-71
2021/01/20 04:16:34;;;;;;;65.00;31.33;;;-0.30;91.40;;;;;;5027887;28;20048;-73
2021/01/20 04:18:59;;;;;;;60.13;31.63;;;-0.40;91.40;;;;;;5032995;28;20060;-71
2021/01/20 04:21:25;;;;;;;64.20;34.55;;;-0.40;91.70;;;;;;5028862;28;20386;-73
2021/01/20 04:23:51;;;;;;;57.95;31.85;;;-0.40;91.40;;;;;;5029393;28;20786;-73
2021/01/20 04:26:18;;;;;;;63.63;33.65;;;-0.40;91.40;;;;;;5030287;28;20037;-72
2021/01/20 04:28:43;;;;;;;61.60;32.28;;;-0.40;91.50;;;;;;5031093;28;20025;-73
2021/01/20 04:31:09;;;;;;;68.15;34.03;;;-0.40;91.60;;;;;;5026579;28;20026;-71
2021/01/20 04:33:35;;;;;;;66.38;32.47;;;-0.50;91.50;;;;;;5030382;28;20037;-71
2021/01/20 04:36:01;;;;;;;62.85;33.00;;;-0.50;91.50;;;;;;5030749;28;20022;-72
2021/01/20 04:38:26;;;;;;;63.60;32.67;;;-0.40;91.60;;;;;;5028898;28;20025;-73
2021/01/20 04:40:57;;;;;;;63.72;31.50;;;-0.40;91.60;;;;;;5027956;28;20525;-74
2021/01/20 04:43:22;;;;;;;58.78;31.38;;;-0.40;91.50;;;;;;5030815;28;20090;-71
2021/01/20 04:45:49;;;;;;;65.80;33.03;;;-0.40;91.60;;;;;;5029047;28;20492;-71
2021/01/20 04:48:16;;;;;;;58.80;31.90;;;-0.40;91.60;;;;;;5030892;28;20109;-73
2021/01/20 04:50:43;;;;;;;56.85;30.75;;;-0.40;91.60;;;;;;5033020;28;20033;-73
2021/01/20 04:53:13;;;;;;;60.03;31.20;;;-0.40;91.70;;;;;;5029426;28;20541;-73
2021/01/20 04:55:41;;;;;;;54.03;31.15;;;-0.40;91.60;;;;;;5032531;28;20091;-73
2021/01/20 04:58:09;;;;;;;58.22;30.15;;;-0.40;91.60;;;;;;5029106;28;20045;-73
2021/01/20 05:00:36;;;;;;;58.72;30.38;;;-0.40;91.70;;;;;;5028649;28;20049;-71
2021/01/20 05:03:05;;;;;;;60.28;31.05;;;-0.30;91.70;;;;;;5030874;28;21870;-71
2021/01/20 05:05:31;;;;;;;56.38;31.80;;;-0.30;91.70;;;;;;5028882;28;20386;-73
2021/01/20 05:07:57;;;;;;;59.65;30.77;;;-0.30;91.70;;;;;;5027718;28;20036;-73
2021/01/20 05:10:22;;;;;;;62.72;33.55;;;-0.40;91.70;;;;;;5030952;28;20033;-73
2021/01/20 05:12:48;;;;;;;57.22;32.22;;;-0.40;91.80;;;;;;5028816;28;20355;-71
2021/01/20 05:15:17;;;;;;;55.45;31.23;;;-0.40;91.90;;;;;;5028800;28;20045;-72
2021/01/20 05:17:59;;;;;;;54.20;31.52;;;-0.30;91.90;;;;;;5030779;28;20033;-74
2021/01/20 05:20:30;;;;;;;62.15;32.17;;;-0.30;91.80;;;;;;5036800;28;20143;-72
2021/01/20 05:23:05;;;;;;;53.58;30.50;;;-0.40;91.80;;;;;;5037003;28;20070;-71
2021/01/20 05:25:48;;;;;;;57.10;30.77;;;-0.30;91.90;;;;;;5031272;28;20531;-72
2021/01/20 05:28:23;;;;;;;63.35;32.20;;;-0.30;91.90;;;;;;5026294;28;20033;-72
2021/01/20 05:30:56;;;;;;;61.28;31.27;;;-0.30;91.80;;;;;;5028657;28;20352;-71
2021/01/20 05:33:40;;;;;;;58.20;31.35;;;-0.30;91.90;;;;;;5026426;28;20466;-72
2021/01/20 05:36:13;;;;;;;58.88;30.25;;;-0.30;92.00;;;;;;5023895;28;20025;-74
2021/01/20 05:38:43;;;;;;;59.80;31.25;;;-0.30;92.00;;;;;;5026038;28;20029;-74
2021/01/20 05:41:26;;;;;;;61.85;31.50;;;-0.30;92.00;;;;;;5024568;28;20107;-72
2021/01/20 05:44:07;;;;;;;53.70;29.55;;;-0.30;92.00;;;;;;5026846;28;20853;-74
2021/01/20 05:46:38;;;;;;;61.00;31.73;;;-0.30;91.90;;;;;;5026573;28;20044;-74
2021/01/20 05:49:05;;;;;;;60.25;30.35;;;-0.30;92.00;;;;;;5027545;28;20120;-74
2021/01/20 05:51:43;;;;;;;57.63;29.73;;;-0.20;91.90;;;;;;5029373;28;20021;-72
2021/01/20 05:54:10;;;;;;;59.65;31.05;;;-0.30;92.00;;;;;;5027553;28;20111;-74
2021/01/20 05:56:37;;;;;;;65.47;33.35;;;-0.30;92.00;;;;;;5030313;28;20018;-74
2021/01/20 05:59:09;;;;;;;54.92;30.30;;;-0.30;92.10;;;;;;5032307;28;20402;-73
2021/01/20 06:01:36;;;;;;;61.92;32.15;;;-0.20;92.00;;;;;;5031646;28;20768;-73
2021/01/20 06:04:04;;;;;;;60.78;32.22;;;-0.30;92.00;;;;;;5029948;28;20029;-73
2021/01/20 06:06:30;;;;;;;61.55;31.13;;;-0.30;92.10;;;;;;5029978;28;20084;-74
2021/01/20 06:08:57;;;;;;;60.63;32.30;;;-0.20;92.10;;;;;;5031024;28;20029;-71
2021/01/20 06:11:23;;;;;;;56.70;31.10;;;-0.20;92.00;;;;;;5029509;28;20033;-74
2021/01/20 06:13:49;;;;;;;58.25;30.60;;;-0.30;92.10;;;;;;5032062;28;20021;-71
2021/01/20 06:16:28;;;;;;;60.13;32.03;;;-0.20;92.20;;;;;;5029910;28;20124;-73
2021/01/20 06:19:00;;;;;;;59.88;31.33;;;-0.20;92.10;;;;;;5036164;28;20024;-73
2021/01/20 06:21:27;;;;;;;60.25;31.90;;;-0.20;92.50;;;;;;5030202;28;20048;-73
2021/01/20 06:24:16;;;;;;;60.80;31.23;;;-0.30;92.30;;;;;;5030044;28;20652;-72
2021/01/20 06:26:59;;;;;;;66.13;32.72;;;-0.30;92.20;;;;;;5026665;28;20025;-71
2021/01/20 06:29:28;;;;;;;64.50;32.75;;;-0.20;92.30;;;;;;5029337;28;20108;-71
2021/01/20 06:31:54;;;;;;;57.08;31.33;;;-0.20;92.20;;;;;;5029254;28;20072;-71
2021/01/20 06:34:20;;;;;;;60.33;33.08;;;-0.10;92.20;;;;;;5031464;28;20037;-74
2021/01/20 06:36:46;;;;;;;57.13;33.05;;;-0.10;92.20;;;;;;5031776;28;20032;-74
2021/01/20 06:39:27;;;;;;;58.13;30.63;;;-0.10;92.20;;;;;;5024410;28;20037;-73
2021/01/20 06:41:54;;;;;;;56.65;30.55;;;-0.10;92.10;;;;;;5030754;28;20116;-73
2021/01/20 06:44:20;;;;;;;55.45;30.25;;;-0.10;92.20;;;;;;5026444;28;20108;-73
2021/01/20 06:46:57;;;;;;;63.10;33.35;;;-0.10;92.10;;;;;;5032233;28;20406;-73
2021/01/20 06:49:24;;;;;;;59.80;31.67;;;-0.10;92.20;;;;;;5032720;28;20381;-74
2021/01/20 06:52:09;;;;;;;58.88;32.08;;;-0.10;92.30;;;;;;5031740;28;20525;-75
2021/01/20 06:54:46;;;;;;;59.70;32.05;;;-0.10;92.40;;;;;;5024006;28;20075;-74
2021/01/20 06:57:31;;;;;;;59.80;32.13;;;-0.10;92.30;;;;;;5032336;28;20021;-73
2021/01/20 07:00:13;;;;;;;60.47;30.77;;;0.00;92.30;;;;;;5031456;28;20030;-75
2021/01/20 07:03:02;;;;;;;60.55;31.92;;;0.00;92.30;;;;;;5032031;28;20033;-72
2021/01/20 07:05:39;;;;;;;52.80;30.02;;;0.00;92.40;;;;;;5038307;28;20360;-75
2021/01/20 07:08:07;;;;;;;61.85;30.77;;;0.10;92.40;;;;;;5038438;28;20501;-73
2021/01/20 07:10:55;;;;;;;54.28;29.52;;;0.10;92.20;;;;;;5042359;28;20063;-72
2021/01/20 07:13:30;;;;;;;57.95;31.20;;;0.10;92.20;;;;;;5033103;28;20086;-72
2021/01/20 07:15:57;;;;;;;59.60;32.33;;;0.20;92.30;;;;;;5027143;28;20049;-73
2021/01/20 07:18:24;;;;;;;56.85;31.08;;;0.20;92.30;;;;;;5034552;28;20056;-72
2021/01/20 07:20:51;;;;;;;55.13;31.90;;;0.20;92.30;;;;;;5035506;28;20039;-72
2021/01/20 07:23:17;;;;;;;60.30;33.25;;;0.20;92.20;;;;;;5032672;28;20080;-74
2021/01/20 07:25:45;;;;;;;56.25;31.23;;;0.30;92.10;;;;;;5038276;28;20029;-73
2021/01/20 07:28:11;;;;;;;58.75;32.40;;;0.30;92.20;;;;;;5035525;28;20517;-73
2021/01/20 07:30:37;;;;;;;60.33;31.40;;;0.30;92.10;;;;;;5037239;28;20052;-75
2021/01/20 07:33:14;;;;;;;53.47;31.00;;;0.30;92.00;;;;;;5031433;28;20026;-73
2021/01/20 07:35:40;;;;;;;55.90;30.90;;;0.40;92.20;;;;;;5030668;28;20589;-74
2021/01/20 07:38:06;;;;;;;62.40;32.13;;;0.30;92.10;;;;;;5036378;28;20079;-75
2021/01/20 07:40:34;;;;;;;60.85;30.92;;;0.40;92.10;;;;;;5029356;28;20502;-72
2021/01/20 07:43:01;;;;;;;55.88;33.17;;;0.50;92.00;;;;;;5035709;28;20048;-73
2021/01/20 07:45:30;;;;;;;56.67;33.17;;;0.50;92.10;;;;;;5033700;28;20033;-74
2021/01/20 07:47:56;;;;;;;57.92;33.30;;;0.50;92.20;;;;;;5031845;28;20079;-72
2021/01/20 07:50:35;;;;;;;54.22;31.02;;;0.50;92.10;;;;;;5025800;28;20467;-71
2021/01/20 07:53:02;;;;;;;62.55;31.17;;;0.50;92.20;;;;;;5033559;28;20027;-71
2021/01/20 07:55:28;;;;;;;55.13;31.85;;;0.50;92.30;;;;;;5037250;28;20033;-74
2021/01/20 07:57:59;;;;;;;55.38;31.63;;;0.60;92.30;;;;;;5032969;28;20039;-72
2021/01/20 08:00:25;;;;;;;61.28;33.53;;;0.60;92.30;;;;;;5031412;28;20140;-74
2021/01/20 08:02:51;;;;;;;57.63;33.03;;;0.70;92.30;;;;;;5035559;28;20030;-72
2021/01/20 08:05:17;;;;;;;59.08;32.88;;;0.60;92.30;;;;;;5015206;28;20036;-75
2021/01/20 08:07:43;;;;;;;56.10;31.63;;;0.70;92.40;;;;;;5030478;28;20442;-71
2021/01/20 08:10:19;;;;;;;58.17;33.00;;;0.70;92.50;;;;;;5017798;28;20030;-73
2021/01/20 08:12:45;;;;;;;57.28;33.20;;;0.80;92.30;;;;;;5024493;28;20030;-74
2021/01/20 08:15:13;;;;;;;56.88;33.13;;;0.80;92.40;;;;;;5022837;28;20017;-74
2021/01/20 08:17:39;;;;;;;59.70;33.42;;;0.80;92.50;;;;;;5026245;28;20029;-74
2021/01/20 08:20:06;;;;;;;61.45;33.20;;;0.80;92.60;;;;;;5019249;28;20025;-74
2021/01/20 08:22:32;;;;;;;58.03;32.58;;;0.90;92.60;;;;;;5031460;28;20052;-73
2021/01/20 08:24:58;;;;;;;56.00;32.97;;;0.90;92.40;;;;;;5026641;28;20030;-68
2021/01/20 08:27:33;;;;;;;54.85;31.70;;;0.90;92.50;;;;;;5023932;28;20061;-71
2021/01/20 08:29:59;;;;;;;63.38;34.28;;;1.00;92.40;;;;;;5024462;28;20025;-73
2021/01/20 08:32:25;;;;;;;59.28;33.58;;;1.00;92.40;;;;;;5028884;28;20386;-69
2021/01/20 08:34:54;;;;;;;58.67;33.42;;;1.10;92.50;;;;;;5042497;28;20500;-73
2021/01/20 08:37:35;;;;;;;65.28;34.15;;;1.10;92.50;;;;;;5031401;28;20021;-71
2021/01/20 08:40:05;;;;;;;61.83;33.42;;;1.20;92.30;;;;;;5026793;28;20188;-70
2021/01/20 08:42:34;;;;;;;62.80;34.88;;;1.20;92.20;;;;;;5026037;28;20063;-71
2021/01/20 08:45:04;;;;;;;64.43;35.28;;;1.20;92.30;;;;;;4999340;28;20546;-71
2021/01/20 08:47:30;;;;;;;58.30;34.33;;;1.30;92.20;;;;;;5027251;28;20141;-68
2021/01/20 08:49:56;;;;;;;61.75;33.78;;;1.30;92.40;;;;;;5025462;28;20116;-72
2021/01/20 08:52:22;;;;;;;61.05;34.60;;;1.30;92.30;;;;;;5017091;28;20022;-72
2021/01/20 08:54:51;;;;;;;60.08;35.30;;;1.30;92.30;;;;;;5029013;28;20030;-72
2021/01/20 08:57:21;;;;;;;63.67;36.47;;;1.40;92.40;;;;;;5020138;28;20123;-74
2021/01/20 08:59:57;;;;;;;67.82;38.65;;;1.40;92.50;;;;;;5025629;28;20124;-74
2021/01/20 09:02:25;;;;;;;66.25;38.08;;;1.40;92.50;;;;;;5022330;28;20044;-73
2021/01/20 09:04:51;;;;;;;65.70;37.65;;;1.40;92.60;;;;;;5025514;28;20067;-72
2021/01/20 09:07:17;;;;;;;62.95;36.42;;;1.40;92.50;;;;;;5027787;28;20037;-72
2021/01/20 09:09:43;;;;;;;58.60;36.13;;;1.50;92.50;;;;;;5027400;28;20445;-73
2021/01/20 09:12:09;;;;;;;64.32;38.08;;;1.40;92.70;;;;;;5021623;28;20049;-74
2021/01/20 09:14:34;;;;;;;61.40;35.53;;;1.50;92.80;;;;;;5022903;28;20402;-73
2021/01/20 09:17:01;;;;;;;60.55;38.22;;;1.60;92.80;;;;;;5029447;28;20033;-72
2021/01/20 09:19:27;;;;;;;68.00;37.97;;;1.60;92.80;;;;;;5034147;28;20474;-74
2021/01/20 09:21:53;;;;;;;65.22;37.80;;;1.60;92.90;;;;;;5029123;28;20037;-72
2021/01/20 09:24:19;;;;;;;65.10;38.75;;;1.70;92.70;;;;;;5024749;28;20084;-72
2021/01/20 09:26:44;;;;;;;63.47;36.08;;;1.70;92.90;;;;;;5024917;28;20025;-72
2021/01/20 09:29:10;;;;;;;66.13;38.42;;;1.70;93.10;;;;;;5027631;28;20045;-74
2021/01/20 09:31:36;;;;;;;66.78;38.70;;;1.70;92.90;;;;;;5026735;28;20032;-74
2021/01/20 09:34:01;;;;;;;67.75;38.95;;;1.80;93.00;;;;;;5026530;28;20044;-72
2021/01/20 09:36:27;;;;;;;68.75;40.55;;;1.80;93.10;;;;;;5027119;28;20495;-72
2021/01/20 09:38:53;;;;;;;64.95;37.00;;;1.80;93.00;;;;;;5027042;28;20076;-74
2021/01/20 09:41:19;;;;;;;64.15;37.63;;;1.90;93.10;;;;;;5025637;28;20077;-73
2021/01/20 09:43:45;;;;;;;74.70;40.28;;;1.90;93.10;;;;;;5026977;28;20026;-73
2021/01/20 09:46:11;;;;;;;66.70;38.45;;;1.90;93.00;;;;;;5017198;28;20045;-69
2021/01/20 09:48:37;;;;;;;66.80;39.10;;;2.00;92.90;;;;;;5029256;28;20029;-70
2021/01/20 09:51:03;;;;;;;69.38;39.38;;;2.00;93.00;;;;;;5028889;28;20067;-69
2021/01/20 09:53:29;;;;;;;74.38;39.45;;;2.00;92.90;;;;;;5025152;28;20037;-67
2021/01/20 09:55:54;;;;;;;66.80;40.20;;;2.10;92.80;;;;;;5029060;28;20029;-72
2021/01/20 09:58:20;;;;;;;70.25;41.22;;;2.10;92.90;;;;;;5030914;28;21047;-73
2021/01/20 10:00:46;;;;;;;77.93;45.05;;;2.10;92.90;;;;;;5030536;28;20410;-73
2021/01/20 10:03:11;;;;;;;69.50;41.47;;;2.20;92.80;;;;;;5031831;28;20021;-71
2021/01/20 10:05:37;;;;;;;72.47;41.58;;;2.20;92.80;;;;;;5027025;28;20071;-72
2021/01/20 10:08:03;;;;;;;71.00;41.15;;;2.20;92.90;;;;;;5031603;28;20029;-68
2021/01/20 10:10:28;;;;;;;72.63;41.75;;;2.20;92.80;;;;;;5032476;28;20033;-72
2021/01/20 10:12:55;;;;;;;67.18;39.80;;;2.30;92.80;;;;;;5030880;28;20116;-73
2021/01/20 10:15:23;;;;;;;67.97;38.58;;;2.30;92.80;;;;;;5024939;28;20025;-73
2021/01/20 10:17:50;;;;;;;68.40;40.20;;;2.30;92.70;;;;;;5019933;28;20037;-74
2021/01/20 10:20:16;;;;;;;63.65;37.20;;;2.40;92.80;;;;;;5025948;28;20394;-72
2021/01/20 10:22:42;;;;;;;68.15;39.47;;;2.40;92.80;;;;;;5031735;28;20037;-72
2021/01/20 10:25:08;;;;;;;63.67;39.38;;;2.50;92.70;;;;;;5026760;28;20033;-67
2021/01/20 10:27:34;;;;;;;64.80;38.22;;;2.40;92.60;;;;;;5026716;28;20021;-73
2021/01/20 10:30:00;;;;;;;67.32;39.72;;;2.40;92.70;;;;;;5023511;28;20750;-74
2021/01/20 10:32:26;;;;;;;67.10;38.50;;;2.40;92.70;;;;;;5027132;28;20033;-71
2021/01/20 10:34:51;;;;;;;60.75;37.58;;;2.40;92.80;;;;;;5029944;28;20033;-70
2021/01/20 10:37:17;;;;;;;64.20;39.65;;;2.50;92.80;;;;;;5020297;28;20025;-75
2021/01/20 10:39:44;;;;;;;69.57;38.50;;;2.50;92.80;;;;;;5023907;28;20080;-73
2021/01/20 10:42:09;;;;;;;67.57;40.20;;;2.50;92.70;;;;;;5027559;28;20048;-74
2021/01/20 10:44:35;;;;;;;60.63;38.42;;;2.50;92.80;;;;;;5027328;28;20017;-73
2021/01/20 10:47:01;;;;;;;66.55;37.47;;;2.50;92.90;;;;;;5022577;28;20441;-72
2021/01/20 10:49:27;;;;;;;64.45;38.63;;;2.50;92.70;;;;;;5028250;28;20474;-74
2021/01/20 10:51:52;;;;;;;66.53;37.03;;;2.50;92.80;;;;;;5022325;28;20026;-72
2021/01/20 10:54:18;;;;;;;68.55;37.65;;;2.50;92.90;;;;;;5023430;28;20029;-74
2021/01/20 10:56:44;;;;;;;60.00;35.65;;;2.60;92.90;;;;;;5023911;28;20032;-74
2021/01/20 10:59:10;;;;;;;63.35;36.88;;;2.60;92.90;;;;;;5026913;28;20028;-73
2021/01/20 11:01:36;;;;;;;66.22;37.25;;;2.60;92.90;;;;;;5028143;28;20442;-73
2021/01/20 11:04:02;;;;;;;66.07;37.55;;;2.60;93.00;;;;;;5022279;28;20026;-73
2021/01/20 11:06:27;;;;;;;58.70;36.53;;;2.60;92.90;;;;;;5015384;28;20075;-74
2021/01/20 11:08:53;;;;;;;58.33;36.08;;;2.60;92.90;;;;;;5023583;28;20107;-73
2021/01/20 11:11:19;;;;;;;59.33;35.47;;;2.70;92.70;;;;;;5026250;28;20083;-74
2021/01/20 11:13:45;;;;;;;61.13;35.63;;;2.70;92.70;;;;;;5055708;28;20057;-73
2021/01/20 11:16:12;;;;;;;62.47;37.72;;;2.70;92.70;;;;;;5021783;28;20543;-73
2021/01/20 11:18:38;;;;;;;63.78;36.95;;;2.70;92.60;;;;;;5021113;28;20089;-74
2021/01/20 11:21:04;;;;;;;59.38;36.85;;;2.70;92.60;;;;;;5023300;28;20048;-72
2021/01/20 11:23:39;;;;;;;62.67;37.88;;;2.80;92.50;;;;;;5025363;28;20436;-74
2021/01/20 11:26:07;;;;;;;61.97;37.17;;;2.80;92.50;;;;;;5028305;28;20029;-72
2021/01/20 11:28:34;;;;;;;62.83;38.42;;;2.80;92.40;;;;;;5027129;28;20428;-73
2021/01/20 11:30:59;;;;;;;65.72;39.58;;;2.80;92.60;;;;;;5025928;28;20025;-75
2021/01/20 11:33:25;;;;;;;69.93;40.67;;;2.70;92.70;;;;;;5023747;28;20401;-74
2021/01/20 11:35:51;;;;;;;64.50;38.33;;;2.80;92.60;;;;;;5022421;28;20089;-75
2021/01/20 11:38:17;;;;;;;67.63;40.22;;;2.80;92.60;;;;;;5020993;28;20040;-73
2021/01/20 11:40:47;;;;;;;76.55;42.35;;;2.80;92.60;;;;;;5025017;28;20068;-71
2021/01/20 11:43:13;;;;;;;74.82;42.97;;;2.80;92.50;;;;;;5018124;28;20029;-74
2021/01/20 11:45:39;;;;;;;73.40;41.10;;;2.80;92.60;;;;;;5021487;28;20348;-74
2021/01/20 11:48:07;;;;;;;72.25;43.35;;;2.90;92.50;;;;;;5022087;28;20029;-73
2021/01/20 11:50:33;;;;;;;74.43;44.28;;;2.90;92.30;;;;;;5021168;28;20400;-71
2021/01/20 11:52:59;;;;;;;75.53;42.47;;;2.90;92.50;;;;;;5024326;28;20052;-72
2021/01/20 11:55:25;;;;;;;76.10;45.50;;;3.00;92.30;;;;;;5031574;28;20034;-73
2021/01/20 11:57:51;;;;;;;71.40;43.00;;;3.00;92.40;;;;;;5024650;28;20120;-73
2021/01/20 12:00:19;;;;;;;79.88;43.75;;;3.10;92.30;;;;;;5025127;28;20384;-75
2021/01/20 12:02:45;;;;;;;74.97;43.13;;;3.10;92.40;;;;;;5023412;28;20032;-75
2021/01/20 12:05:12;;;;;;;77.10;44.38;;;3.20;92.30;;;;;;5024974;28;20108;-75
2021/01/20 12:07:45;;;;;;;77.93;44.83;;;3.20;92.40;;;;;;5029220;28;20074;-74
2021/01/20 12:10:12;;;;;;;76.18;45.97;;;3.20;92.40;;;;;;5024085;28;20033;-75
2021/01/20 12:12:38;;;;;;;83.63;44.80;;;3.20;92.30;;;;;;5027179;28;20490;-74
2021/01/20 12:15:05;;;;;;;84.65;46.72;;;3.40;92.30;;;;;;5022452;28;20087;-74
2021/01/20 12:17:32;;;;;;;80.72;44.35;;;3.50;92.00;;;;;;5023834;28;20025;-74
2021/01/20 12:19:58;;;;;;;78.95;46.33;;;3.50;91.90;;;;;;5014698;28;20123;-74
2021/01/20 12:22:24;;;;;;;79.05;45.15;;;3.50;91.90;;;;;;5031700;28;20088;-74
2021/01/20 12:24:50;;;;;;;79.72;48.22;;;3.60;91.90;;;;;;5025045;28;20026;-74
2021/01/20 12:27:15;;;;;;;74.05;45.08;;;3.60;91.90;;;;;;5026963;28;20033;-75
2021/01/20 12:29:41;;;;;;;73.93;45.47;;;3.60;91.90;;;;;;5027039;28;20053;-76
2021/01/20 12:32:07;;;;;;;73.43;42.95;;;3.60;91.80;;;;;;5028844;28;20045;-74
2021/01/20 12:34:33;;;;;;;76.15;47.40;;;3.70;91.90;;;;;;5035090;28;20045;-75
2021/01/20 12:36:59;;;;;;;76.07;44.40;;;3.70;91.80;;;;;;5028757;28;20108;-74